Time;durP1;ratioP1;P1;durP2;ratioP2;P2;SDS_P1;SDS_P2;PMS_P1;PMS_P2;Temp;Humidity;BMP_temperature;BMP_pressure;BME280_temperature;BME280_humidity;BME280_pressure;Samples;Min_cycle;Max_cycle;Signal;HPM_P1;HPM_P2
2021/07/01 00:01:00;;;;;;;25.77;17.27;;;15.10;99.60;;;;;;5051863;28;20393;-77
2021/07/01 00:03:26;;;;;;;26.67;17.27;;;15.10;99.90;;;;;;5051890;28;20912;-77
2021/07/01 00:05:52;;;;;;;29.07;17.17;;;15.10;99.90;;;;;;5051815;28;20401;-78
2021/07/01 00:08:17;;;;;;;26.70;16.23;;;15.10;99.10;;;;;;5052123;28;20425;-77
2021/07/01 00:10:43;;;;;;;25.53;16.90;;;15.20;98.60;;;;;;5057658;28;20398;-77
2021/07/01 00:13:09;;;;;;;24.47;16.90;;;15.20;99.40;;;;;;5071344;28;20404;-77
2021/07/01 00:15:35;;;;;;;22.40;14.50;;;15.30;98.10;;;;;;5063577;28;20393;-78
2021/07/01 00:18:04;;;;;;;27.08;15.60;;;15.20;99.00;;;;;;5051901;28;20431;-76
2021/07/01 00:20:30;;;;;;;20.57;14.50;;;15.20;98.90;;;;;;5052709;28;20392;-77
2021/07/01 00:22:56;;;;;;;24.10;14.13;;;15.20;97.60;;;;;;5052445;28;20393;-77
2021/07/01 00:25:22;;;;;;;20.87;14.77;;;15.20;98.20;;;;;;5052100;28;20484;-76
2021/07/01 00:27:48;;;;;;;23.65;14.20;;;15.10;98.80;;;;;;5052314;28;20401;-76
2021/07/01 00:30:16;;;;;;;20.90;15.30;;;15.10;98.80;;;;;;5053371;28;20432;-77
2021/07/01 00:32:43;;;;;;;20.48;14.23;;;15.20;98.00;;;;;;5052767;28;20413;-75
2021/07/01 00:35:10;;;;;;;21.92;13.73;;;15.10;98.20;;;;;;5056041;28;20428;-76
2021/07/01 00:37:36;;;;;;;19.35;13.75;;;15.10;99.00;;;;;;5056619;28;20382;-77
2021/07/01 00:40:07;;;;;;;21.52;13.32;;;15.10;98.20;;;;;;5052008;28;20482;-76
2021/07/01 00:42:33;;;;;;;24.65;13.48;;;15.10;96.90;;;;;;5050930;28;20468;-74
2021/07/01 00:44:58;;;;;;;20.65;13.38;;;15.00;99.20;;;;;;5051140;28;20484;-77
2021/07/01 00:47:24;;;;;;;21.65;13.07;;;15.00;99.90;;;;;;5052972;28;20381;-77
2021/07/01 00:49:51;;;;;;;19.42;13.20;;;15.10;98.60;;;;;;5053427;28;20479;-77
2021/07/01 00:52:16;;;;;;;22.40;14.10;;;15.10;99.40;;;;;;5063941;28;20401;-76
2021/07/01 00:54:42;;;;;;;22.13;13.93;;;15.10;99.20;;;;;;5063537;28;20429;-76
2021/07/01 00:57:09;;;;;;;17.75;13.35;;;15.10;99.90;;;;;;5061356;28;20474;-76
2021/07/01 00:59:36;;;;;;;19.48;13.00;;;15.10;99.40;;;;;;5053060;28;20389;-76
2021/07/01 01:02:03;;;;;;;21.23;13.75;;;15.00;99.90;;;;;;5052920;28;20393;-76
2021/07/01 01:04:29;;;;;;;19.65;13.57;;;15.10;99.90;;;;;;5051672;28;20805;-77
2021/07/01 01:06:54;;;;;;;16.67;13.10;;;15.20;99.30;;;;;;5054150;28;20434;-76
2021/07/01 01:09:20;;;;;;;18.57;13.90;;;15.10;99.10;;;;;;5067211;28;20392;-76
2021/07/01 01:11:45;;;;;;;19.10;13.20;;;15.10;99.40;;;;;;5080177;28;20392;-77
2021/07/01 01:14:11;;;;;;;20.88;13.85;;;15.10;99.50;;;;;;5070939;28;20397;-77
2021/07/01 01:16:37;;;;;;;24.92;13.50;;;15.00;99.90;;;;;;5055625;28;20462;-76
2021/07/01 01:19:03;;;;;;;20.48;13.05;;;15.20;98.90;;;;;;5050576;28;20791;-74
2021/07/01 01:21:29;;;;;;;23.02;14.05;;;15.10;98.70;;;;;;5054279;28;20386;-77
2021/07/01 01:23:56;;;;;;;23.77;13.70;;;15.10;98.60;;;;;;5059459;28;20394;-77
2021/07/01 01:26:22;;;;;;;17.05;12.48;;;15.10;99.10;;;;;;5066844;28;20389;-78
2021/07/01 01:28:52;;;;;;;17.75;12.45;;;15.10;99.50;;;;;;5066087;28;20436;-77
2021/07/01 01:31:18;;;;;;;16.23;12.38;;;15.10;98.20;;;;;;5062862;28;20424;-78
2021/07/01 01:33:44;;;;;;;18.03;12.10;;;15.10;96.60;;;;;;5062969;28;20408;-77
2021/07/01 01:36:09;;;;;;;18.70;13.07;;;15.10;97.60;;;;;;5063166;28;20393;-78
2021/07/01 01:38:35;;;;;;;16.53;12.17;;;15.00;98.30;;;;;;5064852;28;20381;-77
2021/07/01 01:41:01;;;;;;;21.17;12.40;;;15.00;99.60;;;;;;5060803;28;20381;-75
2021/07/01 01:43:26;;;;;;;18.10;12.60;;;15.10;97.90;;;;;;5064979;28;20397;-78
2021/07/01 01:45:52;;;;;;;20.10;13.00;;;15.10;98.70;;;;;;5059232;28;20423;-77
2021/07/01 01:48:19;;;;;;;25.33;13.02;;;15.10;98.70;;;;;;5059548;28;20471;-77
2021/07/01 01:50:45;;;;;;;19.75;12.90;;;15.10;98.70;;;;;;5065971;28;20413;-75
2021/07/01 01:53:12;;;;;;;19.27;13.50;;;15.10;98.50;;;;;;5060634;28;20397;-77
2021/07/01 01:55:38;;;;;;;18.27;14.05;;;15.00;99.10;;;;;;5060565;28;20462;-78
2021/07/01 01:58:05;;;;;;;19.40;13.88;;;15.10;98.40;;;;;;5057826;28;20397;-77
2021/07/01 02:00:31;;;;;;;21.70;14.32;;;15.00;98.00;;;;;;5061645;28;20381;-76
2021/07/01 02:02:58;;;;;;;21.90;14.60;;;15.00;99.00;;;;;;5066832;28;20399;-76
2021/07/01 02:05:23;;;;;;;18.88;14.20;;;15.00;99.20;;;;;;5066439;28;20447;-76
2021/07/01 02:07:50;;;;;;;20.93;14.80;;;15.00;98.50;;;;;;5065077;28;20393;-76
2021/07/01 02:10:22;;;;;;;22.38;14.85;;;15.00;98.90;;;;;;5067004;28;20385;-77
2021/07/01 02:12:48;;;;;;;24.00;14.52;;;15.00;98.50;;;;;;5070032;28;20405;-76
2021/07/01 02:15:16;;;;;;;19.00;13.80;;;15.00;99.20;;;;;;5064293;28;20381;-75
2021/07/01 02:17:42;;;;;;;21.10;13.88;;;15.00;99.30;;;;;;5063809;28;20425;-75
2021/07/01 02:20:10;;;;;;;23.55;14.40;;;15.00;99.20;;;;;;5064483;28;20397;-77
2021/07/01 02:22:37;;;;;;;19.80;14.38;;;14.90;99.10;;;;;;5061385;28;20393;-75
2021/07/01 02:25:04;;;;;;;24.67;13.77;;;15.00;98.90;;;;;;5059392;28;20392;-76
2021/07/01 02:27:29;;;;;;;20.38;13.82;;;15.00;98.50;;;;;;5060534;28;20767;-77
2021/07/01 02:29:57;;;;;;;19.83;13.57;;;15.00;97.60;;;;;;5056606;28;20523;-76
2021/07/01 02:32:22;;;;;;;23.73;13.57;;;14.90;98.70;;;;;;5054514;28;20914;-77
2021/07/01 02:34:48;;;;;;;21.73;14.33;;;15.00;98.10;;;;;;5059863;28;20385;-77
2021/07/01 02:37:14;;;;;;;23.00;15.02;;;14.90;98.10;;;;;;5061091;28;20451;-77
2021/07/01 02:39:40;;;;;;;20.80;14.40;;;15.00;98.50;;;;;;5059284;28;20397;-77
2021/07/01 02:42:06;;;;;;;23.63;14.15;;;15.00;98.20;;;;;;5054028;28;20389;-76
2021/07/01 02:44:32;;;;;;;23.50;15.20;;;15.00;97.20;;;;;;5054652;28;20382;-77
2021/07/01 02:46:58;;;;;;;21.55;14.10;;;15.00;97.50;;;;;;5061579;28;20382;-77
2021/07/01 02:49:24;;;;;;;21.15;14.70;;;15.00;98.00;;;;;;5058964;28;20383;-77
2021/07/01 02:51:52;;;;;;;23.50;14.40;;;14.90;98.80;;;;;;5057136;28;20390;-75
2021/07/01 02:54:17;;;;;;;25.80;14.80;;;14.90;99.10;;;;;;5046386;28;20423;-76
2021/07/01 02:56:43;;;;;;;23.42;14.80;;;14.90;99.20;;;;;;5035460;28;20417;-77
2021/07/01 02:59:11;;;;;;;26.17;15.43;;;14.90;99.50;;;;;;5065116;28;20480;-77
2021/07/01 03:01:36;;;;;;;31.60;17.47;;;14.90;99.20;;;;;;5068425;28;20440;-77
2021/07/01 03:04:02;;;;;;;27.57;16.47;;;14.80;99.30;;;;;;5060675;28;20388;-77
2021/07/01 03:06:29;;;;;;;25.60;16.35;;;14.90;99.90;;;;;;5056788;28;20392;-77
2021/07/01 03:08:57;;;;;;;26.50;16.07;;;14.80;99.90;;;;;;5052975;28;20494;-77
2021/07/01 03:11:23;;;;;;;23.10;16.30;;;14.80;99.90;;;;;;5067430;28;20390;-76
2021/07/01 03:13:48;;;;;;;28.88;16.77;;;14.80;99.90;;;;;;5072701;28;20400;-76
2021/07/01 03:16:19;;;;;;;28.13;17.20;;;14.90;99.90;;;;;;5057149;28;20381;-76
2021/07/01 03:18:49;;;;;;;29.83;16.27;;;14.80;99.90;;;;;;5052230;28;20468;-76
2021/07/01 03:21:16;;;;;;;25.95;16.00;;;14.80;99.80;;;;;;5052878;28;20742;-76
2021/07/01 03:23:42;;;;;;;27.02;16.30;;;14.90;99.60;;;;;;5058227;28;20889;-77
2021/07/01 03:26:08;;;;;;;26.80;17.60;;;14.80;99.90;;;;;;5059838;28;20401;-77
2021/07/01 03:28:33;;;;;;;25.00;16.17;;;14.80;99.90;;;;;;5069211;28;20528;-78
2021/07/01 03:30:59;;;;;;;26.53;15.73;;;14.80;99.90;;;;;;5051354;28;20394;-76
2021/07/01 03:33:24;;;;;;;26.10;15.60;;;14.90;99.40;;;;;;5042466;28;20504;-78
2021/07/01 03:35:50;;;;;;;25.42;15.55;;;14.90;99.50;;;;;;5058694;28;20401;-78
2021/07/01 03:38:16;;;;;;;25.02;16.38;;;14.80;99.90;;;;;;5058813;28;20480;-79
2021/07/01 03:40:41;;;;;;;27.70;16.63;;;14.80;99.90;;;;;;5057415;28;20911;-78
2021/07/01 03:43:07;;;;;;;25.57;15.03;;;14.80;99.90;;;;;;5056287;28;20413;-78
2021/07/01 03:45:33;;;;;;;27.80;16.00;;;14.80;99.90;;;;;;5057343;28;20731;-78
2021/07/01 03:47:58;;;;;;;26.30;15.05;;;14.80;99.90;;;;;;5055062;28;20393;-78
2021/07/01 03:50:24;;;;;;;27.13;15.40;;;14.80;99.90;;;;;;5057053;28;20926;-78
2021/07/01 03:52:49;;;;;;;26.42;15.52;;;14.70;99.90;;;;;;5053013;28;20409;-77
2021/07/01 03:55:18;;;;;;;29.48;15.40;;;14.70;99.90;;;;;;5053045;28;20400;-79
2021/07/01 03:57:44;;;;;;;23.33;14.98;;;14.70;99.90;;;;;;5061074;28;20386;-79
2021/07/01 04:00:10;;;;;;;22.27;13.70;;;14.70;99.90;;;;;;5060960;28;20818;-79
2021/07/01 04:02:36;;;;;;;23.13;12.95;;;14.70;99.90;;;;;;5053392;28;20440;-79
2021/07/01 04:05:01;;;;;;;22.67;14.13;;;14.70;99.90;;;;;;5058110;28;20402;-77
2021/07/01 04:07:27;;;;;;;22.33;14.38;;;14.80;99.90;;;;;;5062291;28;20949;-77
2021/07/01 04:09:52;;;;;;;21.73;13.23;;;14.80;99.30;;;;;;5061561;28;20381;-78
2021/07/01 04:12:19;;;;;;;20.27;13.23;;;14.80;99.90;;;;;;5066018;28;20405;-78
2021/07/01 04:14:44;;;;;;;21.63;13.35;;;14.80;99.60;;;;;;5056009;28;20388;-77
2021/07/01 04:17:10;;;;;;;23.75;13.80;;;14.90;99.20;;;;;;5054274;28;20867;-77
2021/07/01 04:19:36;;;;;;;27.05;12.68;;;14.80;98.30;;;;;;5055016;28;20393;-77
2021/07/01 04:22:02;;;;;;;25.85;13.90;;;15.00;96.80;;;;;;5055367;28;20965;-77
2021/07/01 04:24:27;;;;;;;25.23;13.80;;;15.00;96.50;;;;;;5056123;28;20412;-77
2021/07/01 04:26:53;;;;;;;20.97;12.80;;;14.90;95.80;;;;;;5054128;28;20406;-78
2021/07/01 04:29:20;;;;;;;23.90;12.07;;;14.90;96.70;;;;;;5054721;28;20475;-77
2021/07/01 04:31:46;;;;;;;25.60;12.80;;;14.90;96.40;;;;;;5055394;28;20892;-78
2021/07/01 04:34:11;;;;;;;24.13;12.15;;;15.00;94.60;;;;;;5055294;28;20430;-78
2021/07/01 04:36:37;;;;;;;28.52;13.13;;;14.90;94.90;;;;;;5055960;28;20378;-78
2021/07/01 04:39:03;;;;;;;33.95;12.65;;;14.90;95.30;;;;;;5056541;28;20392;-78
2021/07/01 04:41:29;;;;;;;27.20;12.30;;;14.90;95.70;;;;;;5056009;28;20539;-78
2021/07/01 04:43:54;;;;;;;29.80;14.00;;;14.90;95.90;;;;;;5057613;28;20416;-78
2021/07/01 04:46:20;;;;;;;25.63;13.60;;;14.90;96.30;;;;;;5056230;28;20433;-78
2021/07/01 04:48:45;;;;;;;33.90;15.52;;;14.90;96.50;;;;;;5040793;28;20403;-77
2021/07/01 04:51:11;;;;;;;25.65;15.23;;;14.80;96.90;;;;;;5036068;28;20441;-78
2021/07/01 04:53:39;;;;;;;28.90;15.70;;;14.80;96.90;;;;;;5037793;28;20411;-76
2021/07/01 04:56:06;;;;;;;35.28;16.23;;;14.80;97.00;;;;;;5042651;28;20654;-77
2021/07/01 04:58:31;;;;;;;33.58;17.25;;;14.70;97.40;;;;;;5055588;28;20463;-78
2021/07/01 05:00:57;;;;;;;30.05;16.88;;;14.70;97.90;;;;;;5055416;28;20397;-78
2021/07/01 05:03:22;;;;;;;31.00;16.87;;;14.80;97.40;;;;;;5055045;28;20878;-77
2021/07/01 05:05:48;;;;;;;30.87;17.00;;;14.80;98.70;;;;;;5056048;28;20385;-76
2021/07/01 05:08:15;;;;;;;32.77;17.00;;;14.80;96.90;;;;;;5057625;28;20797;-79
2021/07/01 05:10:41;;;;;;;39.35;17.58;;;14.90;97.40;;;;;;5066391;28;20387;-78
2021/07/01 05:13:07;;;;;;;31.95;17.20;;;14.90;98.20;;;;;;5078144;28;20780;-78
2021/07/01 05:15:32;;;;;;;42.53;19.53;;;14.90;97.30;;;;;;5068287;28;20401;-77
2021/07/01 05:17:58;;;;;;;38.77;18.80;;;14.90;95.90;;;;;;5059492;28;20381;-76
2021/07/01 05:20:23;;;;;;;37.97;18.77;;;15.00;96.00;;;;;;5057511;28;20404;-79
2021/07/01 05:22:49;;;;;;;31.92;18.70;;;15.00;95.60;;;;;;5057288;28;20914;-77
2021/07/01 05:25:14;;;;;;;32.55;18.75;;;15.10;95.60;;;;;;5060448;28;20480;-76
2021/07/01 05:27:40;;;;;;;30.87;17.70;;;15.10;93.80;;;;;;5059397;28;20404;-79
2021/07/01 05:30:06;;;;;;;32.57;17.30;;;15.10;94.80;;;;;;5059498;28;20415;-77
2021/07/01 05:32:32;;;;;;;31.05;17.48;;;15.20;93.50;;;;;;5061246;28;20550;-76
2021/07/01 05:34:57;;;;;;;30.33;17.03;;;15.10;95.40;;;;;;5060018;28;20496;-76
2021/07/01 05:37:23;;;;;;;29.95;15.25;;;15.20;93.70;;;;;;5062799;28;20419;-75
2021/07/01 05:39:49;;;;;;;29.70;17.20;;;15.20;91.20;;;;;;5057297;28;20407;-75
2021/07/01 05:42:14;;;;;;;24.03;15.40;;;15.10;96.00;;;;;;5065789;28;20392;-76
2021/07/01 05:44:45;;;;;;;28.20;16.73;;;15.00;96.50;;;;;;5063465;28;20489;-76
2021/07/01 05:47:11;;;;;;;29.10;16.87;;;15.00;96.90;;;;;;5063285;28;20471;-76
2021/07/01 05:49:37;;;;;;;27.75;17.05;;;15.00;97.50;;;;;;5055290;28;20942;-75
2021/07/01 05:52:05;;;;;;;24.77;15.83;;;15.00;95.50;;;;;;5060382;28;20870;-75
2021/07/01 05:54:36;;;;;;;30.42;17.73;;;15.00;94.40;;;;;;5059393;28;20489;-75
2021/07/01 05:57:03;;;;;;;30.40;18.75;;;15.00;96.40;;;;;;5037645;28;20422;-76
2021/07/01 05:59:29;;;;;;;30.67;19.83;;;14.90;98.90;;;;;;5059028;28;20783;-74
2021/07/01 06:01:54;;;;;;;29.02;18.77;;;14.90;97.10;;;;;;5058988;28;20381;-73
2021/07/01 06:04:20;;;;;;;42.40;20.23;;;14.90;94.70;;;;;;5066756;28;20404;-75
2021/07/01 06:06:51;;;;;;;38.20;19.80;;;14.90;96.20;;;;;;5066855;28;20400;-76
2021/07/01 06:09:21;;;;;;;37.45;19.17;;;15.00;93.80;;;;;;5053437;28;20457;-75
2021/07/01 06:11:55;;;;;;;36.25;20.10;;;15.10;90.60;;;;;;5059455;28;20403;-75
2021/07/01 06:14:23;;;;;;;41.67;21.05;;;15.10;88.60;;;;;;5055861;28;20400;-76
2021/07/01 06:16:50;;;;;;;42.95;20.95;;;15.10;88.00;;;;;;5055047;28;20437;-75
2021/07/01 06:19:17;;;;;;;36.55;19.80;;;15.10;88.90;;;;;;5071030;28;20418;-75
2021/07/01 06:21:43;;;;;;;46.38;21.13;;;15.10;87.60;;;;;;5071813;28;20397;-77
2021/07/01 06:24:09;;;;;;;40.83;19.80;;;15.20;87.10;;;;;;5075321;28;20401;-76
2021/07/01 06:26:36;;;;;;;39.58;20.75;;;15.30;86.10;;;;;;5056201;28;20405;-76
2021/07/01 06:29:02;;;;;;;39.90;20.75;;;15.30;86.00;;;;;;5057786;28;20412;-75
2021/07/01 06:31:27;;;;;;;34.17;19.30;;;15.30;83.90;;;;;;5049753;28;20398;-77
2021/07/01 06:33:53;;;;;;;35.88;19.40;;;15.40;83.70;;;;;;5052400;28;20409;-76
2021/07/01 06:36:20;;;;;;;40.60;19.70;;;15.50;81.50;;;;;;5052793;28;20855;-74
2021/07/01 06:38:49;;;;;;;38.17;17.85;;;15.60;81.60;;;;;;5053139;28;20469;-76
2021/07/01 06:41:17;;;;;;;32.47;16.23;;;15.70;77.40;;;;;;5052400;28;20401;-76
2021/07/01 06:43:47;;;;;;;35.95;17.13;;;15.80;75.00;;;;;;5063386;28;20467;-75
2021/07/01 06:46:14;;;;;;;34.88;17.60;;;15.60;77.30;;;;;;5051157;28;20469;-75
2021/07/01 06:48:40;;;;;;;37.40;17.50;;;15.60;79.70;;;;;;5052509;28;20376;-73
2021/07/01 06:51:06;;;;;;;31.27;15.00;;;15.50;81.00;;;;;;5051513;28;20451;-73
2021/07/01 06:53:35;;;;;;;31.80;14.13;;;15.50;77.50;;;;;;5051615;28;20421;-73
2021/07/01 06:56:01;;;;;;;30.47;16.23;;;15.50;77.10;;;;;;5051578;28;20461;-75
2021/07/01 06:58:28;;;;;;;28.45;15.68;;;15.40;76.80;;;;;;5050226;28;20386;-73
2021/07/01 07:00:54;;;;;;;34.10;16.07;;;15.40;78.80;;;;;;5049375;28;20911;-73
2021/07/01 07:03:20;;;;;;;31.63;15.70;;;15.50;77.50;;;;;;5053911;28;20425;-73
2021/07/01 07:05:48;;;;;;;32.55;15.45;;;15.60;75.80;;;;;;5051252;28;20421;-73
2021/07/01 07:08:15;;;;;;;32.72;15.00;;;15.70;76.90;;;;;;5050777;28;20401;-76
2021/07/01 07:10:43;;;;;;;29.50;15.88;;;15.80;75.80;;;;;;5058963;28;20397;-74
2021/07/01 07:13:09;;;;;;;34.38;15.63;;;15.80;73.80;;;;;;5074007;28;20405;-75
2021/07/01 07:15:36;;;;;;;35.08;15.60;;;15.80;73.70;;;;;;5058359;28;20399;-72
2021/07/01 07:18:27;;;;;;;31.45;15.25;;;15.90;72.70;;;;;;5054430;28;20389;-74
2021/07/01 07:21:08;;;;;;;37.45;16.83;;;15.90;71.80;;;;;;5052435;28;20479;-77
2021/07/01 07:23:36;;;;;;;34.10;15.40;;;15.90;72.30;;;;;;5055889;28;20385;-76
2021/07/01 07:26:13;;;;;;;30.52;15.50;;;15.90;73.30;;;;;;5073322;28;20408;-75
2021/07/01 07:28:40;;;;;;;30.73;15.15;;;15.90;73.20;;;;;;5057069;28;20481;-81
2021/07/01 07:31:06;;;;;;;30.73;15.00;;;16.00;71.90;;;;;;5054207;28;20404;-77
2021/07/01 07:33:33;;;;;;;32.58;15.70;;;15.90;71.40;;;;;;5050853;28;20405;-74
2021/07/01 07:35:58;;;;;;;31.10;15.03;;;16.00;72.00;;;;;;5052759;28;20417;-76
2021/07/01 07:38:27;;;;;;;37.70;15.77;;;16.10;72.20;;;;;;5055803;28;20400;-75
2021/07/01 07:40:53;;;;;;;27.73;14.63;;;16.30;72.00;;;;;;5050542;28;20897;-74
2021/07/01 07:43:21;;;;;;;28.27;14.00;;;16.40;65.30;;;;;;5056368;28;20381;-77
2021/07/01 07:45:48;;;;;;;32.97;15.30;;;16.30;65.60;;;;;;5053100;28;20481;-77
2021/07/01 07:48:14;;;;;;;26.83;14.60;;;16.30;66.80;;;;;;5052176;28;20382;-76
2021/07/01 07:50:41;;;;;;;26.75;14.10;;;16.20;67.20;;;;;;5052065;28;20396;-76
2021/07/01 07:53:10;;;;;;;26.33;12.98;;;16.20;67.20;;;;;;5053428;28;20467;-78
2021/07/01 07:55:36;;;;;;;30.08;13.30;;;16.10;66.10;;;;;;5054920;28;20381;-78
2021/07/01 07:58:06;;;;;;;26.00;13.52;;;16.10;66.80;;;;;;5058859;28;20401;-78
2021/07/01 08:00:33;;;;;;;25.77;12.93;;;16.00;67.90;;;;;;5056326;28;20437;-79
2021/07/01 08:03:06;;;;;;;23.67;12.60;;;15.90;67.70;;;;;;5058510;28;20389;-79
2021/07/01 08:05:32;;;;;;;29.80;14.47;;;15.90;66.60;;;;;;5055266;28;20382;-78
2021/07/01 08:08:00;;;;;;;26.98;13.77;;;15.80;67.60;;;;;;5055702;28;20399;-78
2021/07/01 08:10:31;;;;;;;27.70;12.95;;;15.80;67.40;;;;;;5055540;28;20385;-79
2021/07/01 08:13:04;;;;;;;28.98;14.70;;;15.80;66.70;;;;;;5056054;28;20448;-78
2021/07/01 08:15:31;;;;;;;26.13;13.85;;;15.90;66.40;;;;;;5057384;28;20381;-79
2021/07/01 08:17:57;;;;;;;23.58;12.60;;;16.00;66.60;;;;;;5056738;28;20385;-78
2021/07/01 08:20:27;;;;;;;26.75;14.07;;;16.00;65.40;;;;;;5055845;28;20751;-78
2021/07/01 08:22:54;;;;;;;26.52;13.30;;;15.90;66.00;;;;;;5053642;28;20423;-77
2021/07/01 08:25:21;;;;;;;27.63;12.73;;;16.00;66.30;;;;;;5057299;28;20464;-78
2021/07/01 08:27:49;;;;;;;23.40;13.48;;;16.20;65.00;;;;;;5057346;28;20427;-78
2021/07/01 08:30:17;;;;;;;22.33;13.13;;;16.10;64.20;;;;;;5059710;28;20385;-77
2021/07/01 08:32:46;;;;;;;24.83;12.98;;;16.00;66.00;;;;;;5059399;28;20405;-77
2021/07/01 08:35:13;;;;;;;24.92;13.18;;;16.00;65.30;;;;;;5062232;28;20388;-76
2021/07/01 08:37:45;;;;;;;23.52;13.15;;;16.00;65.60;;;;;;5059334;28;20382;-78
2021/07/01 08:40:12;;;;;;;23.73;12.90;;;16.10;66.10;;;;;;5059754;28;20468;-78
2021/07/01 08:42:38;;;;;;;24.47;13.20;;;16.20;65.50;;;;;;5054936;28;20396;-78
2021/07/01 08:45:10;;;;;;;24.73;14.10;;;16.50;63.60;;;;;;5057107;28;20750;-78
2021/07/01 08:47:40;;;;;;;26.02;13.90;;;16.60;62.60;;;;;;5052851;28;20430;-77
2021/07/01 08:50:10;;;;;;;26.35;12.95;;;16.60;60.00;;;;;;5054176;28;20459;-77
2021/07/01 08:52:46;;;;;;;26.15;13.40;;;16.50;62.80;;;;;;5054412;28;20404;-77
2021/07/01 08:55:18;;;;;;;26.35;12.45;;;16.40;63.90;;;;;;5057533;28;20373;-78
2021/07/01 08:57:49;;;;;;;24.80;12.30;;;16.40;63.30;;;;;;5062195;28;20468;-78
2021/07/01 09:00:16;;;;;;;27.40;13.07;;;16.20;64.70;;;;;;5058820;28;20377;-78
2021/07/01 09:02:43;;;;;;;27.73;12.68;;;16.10;66.00;;;;;;5055634;28;20866;-78
2021/07/01 09:05:18;;;;;;;27.80;12.13;;;16.10;67.80;;;;;;5054778;28;20433;-77
2021/07/01 09:07:52;;;;;;;16.63;10.23;;;16.10;68.60;;;;;;5052230;28;20386;-78
2021/07/01 09:10:19;;;;;;;21.27;11.20;;;16.00;66.60;;;;;;5052846;28;20822;-78
2021/07/01 09:12:59;;;;;;;17.77;10.00;;;16.10;66.80;;;;;;5053302;28;20428;-79
2021/07/01 09:15:26;;;;;;;23.27;10.50;;;16.20;66.20;;;;;;5052567;28;20382;-77
2021/07/01 09:17:52;;;;;;;15.43;8.80;;;16.20;65.10;;;;;;5051745;28;20465;-78
2021/07/01 09:20:21;;;;;;;21.43;10.00;;;16.20;63.90;;;;;;5053993;28;20395;-80
2021/07/01 09:22:48;;;;;;;16.30;8.70;;;16.20;67.70;;;;;;5054127;28;20811;-78
2021/07/01 09:25:15;;;;;;;15.82;9.05;;;16.20;67.00;;;;;;5053367;28;20396;-77
2021/07/01 09:27:44;;;;;;;15.70;9.77;;;16.20;68.90;;;;;;5064198;23;20441;-70
2021/07/01 09:30:11;;;;;;;16.23;8.70;;;16.30;66.90;;;;;;5050660;28;20468;-70
2021/07/01 09:32:38;;;;;;;16.35;8.95;;;16.30;64.90;;;;;;5050651;28;20802;-71
2021/07/01 09:35:04;;;;;;;15.93;8.23;;;16.40;64.00;;;;;;5050533;28;20465;-71
2021/07/01 09:37:45;;;;;;;17.42;8.68;;;16.50;62.40;;;;;;5050384;28;20389;-71
2021/07/01 09:40:14;;;;;;;21.15;9.07;;;16.60;60.90;;;;;;5050402;28;20488;-71
2021/07/01 09:42:40;;;;;;;18.33;8.35;;;16.60;62.00;;;;;;5050064;28;20385;-69
2021/07/01 09:45:13;;;;;;;17.77;8.50;;;16.70;60.70;;;;;;5050319;28;20552;-70
2021/07/01 09:47:44;;;;;;;21.85;8.50;;;16.70;60.30;;;;;;5049628;28;20381;-71
2021/07/01 09:50:11;;;;;;;16.05;8.82;;;16.70;59.70;;;;;;5049823;28;20385;-71
2021/07/01 09:52:42;;;;;;;22.42;9.32;;;16.80;59.90;;;;;;5051309;28;20397;-71
2021/07/01 09:55:10;;;;;;;15.82;9.00;;;17.00;59.20;;;;;;5053229;28;20388;-71
2021/07/01 09:57:44;;;;;;;18.65;8.93;;;17.00;55.70;;;;;;5053232;28;20877;-69
2021/07/01 10:00:11;;;;;;;18.20;8.43;;;16.90;58.30;;;;;;5053453;28;20393;-71
2021/07/01 10:02:37;;;;;;;16.25;9.40;;;17.00;56.80;;;;;;5053620;28;20447;-71
2021/07/01 10:05:08;;;;;;;21.20;9.73;;;16.90;57.10;;;;;;5053621;28;20409;-70
2021/07/01 10:07:46;;;;;;;23.30;9.45;;;16.80;57.40;;;;;;5053440;28;20400;-70
2021/07/01 10:10:14;;;;;;;21.13;9.35;;;16.80;57.80;;;;;;5052571;28;20941;-70
2021/07/01 10:12:58;;;;;;;25.57;10.20;;;16.70;58.50;;;;;;5053537;28;20439;-70
2021/07/01 10:15:29;;;;;;;20.20;10.00;;;16.80;58.00;;;;;;5053707;28;20789;-72
2021/07/01 10:18:16;;;;;;;20.58;10.48;;;16.70;58.30;;;;;;5053727;28;20753;-69
2021/07/01 10:20:45;;;;;;;26.23;10.35;;;16.70;58.80;;;;;;5054558;28;20381;-70
2021/07/01 10:23:20;;;;;;;25.83;10.02;;;16.80;57.90;;;;;;5053523;28;20703;-71
2021/07/01 10:25:48;;;;;;;21.83;9.70;;;16.70;57.90;;;;;;5054425;28;20385;-71
2021/07/01 10:28:16;;;;;;;21.37;9.67;;;16.80;59.00;;;;;;5052570;28;20393;-71
2021/07/01 10:30:43;;;;;;;20.60;10.35;;;17.00;57.90;;;;;;5052877;28;20400;-71
2021/07/01 10:33:31;;;;;;;20.75;10.25;;;17.00;56.60;;;;;;5052845;28;20412;-71
2021/07/01 10:35:59;;;;;;;21.15;9.63;;;17.00;55.70;;;;;;5053151;28;20385;-70
2021/07/01 10:38:25;;;;;;;22.58;10.30;;;16.90;56.40;;;;;;5053020;28;20815;-71
2021/07/01 10:40:53;;;;;;;23.48;10.13;;;17.10;55.60;;;;;;5052820;28;20381;-71
2021/07/01 10:43:35;;;;;;;21.58;9.55;;;16.90;56.80;;;;;;5053094;28;20451;-71
2021/07/01 10:46:01;;;;;;;19.70;9.80;;;16.90;58.30;;;;;;5053222;28;20428;-70
2021/07/01 10:48:27;;;;;;;21.60;11.07;;;16.80;57.70;;;;;;5055756;28;20389;-71
2021/07/01 10:50:54;;;;;;;22.67;11.30;;;16.80;58.90;;;;;;5056282;28;20567;-71
2021/07/01 10:53:32;;;;;;;21.20;9.30;;;16.90;59.10;;;;;;5054849;28;20421;-71
2021/07/01 10:56:00;;;;;;;23.77;10.30;;;17.10;58.30;;;;;;5055216;28;20385;-71
2021/07/01 10:58:27;;;;;;;25.75;10.60;;;17.10;58.20;;;;;;5054691;28;20530;-71
2021/07/01 11:00:52;;;;;;;17.20;10.63;;;17.10;58.20;;;;;;5053442;28;20436;-70
2021/07/01 11:03:21;;;;;;;21.00;10.20;;;17.20;56.40;;;;;;5054534;28;20410;-71
2021/07/01 11:05:47;;;;;;;19.05;11.15;;;17.20;56.00;;;;;;5056202;28;20453;-70
2021/07/01 11:08:33;;;;;;;22.70;10.65;;;17.20;56.50;;;;;;5054378;28;20393;-70
2021/07/01 11:11:03;;;;;;;18.73;10.63;;;17.20;55.20;;;;;;5055436;28;20381;-71
2021/07/01 11:13:30;;;;;;;23.27;11.25;;;17.10;55.50;;;;;;5054825;28;20397;-70
2021/07/01 11:16:08;;;;;;;20.93;10.67;;;17.20;56.00;;;;;;5054860;28;20551;-70
2021/07/01 11:18:39;;;;;;;26.30;10.80;;;17.20;55.60;;;;;;5052930;28;20393;-71
2021/07/01 11:21:23;;;;;;;20.75;10.63;;;17.10;57.20;;;;;;5052772;28;20386;-69
2021/07/01 11:23:52;;;;;;;19.20;10.43;;;16.90;59.10;;;;;;5052164;28;20424;-71
2021/07/01 11:26:36;;;;;;;22.13;10.35;;;16.80;60.50;;;;;;5052001;28;20385;-71
2021/07/01 11:29:07;;;;;;;27.30;10.65;;;17.00;57.70;;;;;;5050654;28;20996;-70
2021/07/01 11:31:37;;;;;;;18.30;10.32;;;17.20;56.50;;;;;;5051873;28;20396;-71
2021/07/01 11:34:03;;;;;;;18.25;10.65;;;17.10;57.10;;;;;;5051565;28;20597;-71
2021/07/01 11:36:29;;;;;;;21.65;10.68;;;17.30;56.10;;;;;;5051877;28;20385;-70
2021/07/01 11:39:15;;;;;;;15.15;10.02;;;17.10;56.80;;;;;;5051950;28;20380;-70
2021/07/01 11:41:43;;;;;;;20.35;10.40;;;17.00;57.60;;;;;;5052165;28;20388;-71
2021/07/01 11:44:11;;;;;;;20.17;9.85;;;16.80;59.20;;;;;;5051455;28;20392;-70
2021/07/01 11:46:37;;;;;;;20.45;10.60;;;16.80;60.10;;;;;;5051691;28;20451;-70
2021/07/01 11:49:05;;;;;;;19.20;11.18;;;16.70;62.80;;;;;;5051447;28;20390;-71
2021/07/01 11:51:31;;;;;;;22.85;10.77;;;16.70;65.10;;;;;;5052259;28;20892;-70
2021/07/01 11:53:57;;;;;;;18.45;10.60;;;16.70;64.80;;;;;;5051943;28;20459;-70
2021/07/01 11:56:24;;;;;;;18.63;11.20;;;16.70;64.10;;;;;;5051911;28;20414;-70
2021/07/01 11:58:50;;;;;;;26.20;10.75;;;16.60;66.00;;;;;;5051646;28;20389;-71
2021/07/01 12:01:16;;;;;;;19.07;10.37;;;16.60;67.10;;;;;;5051254;28;20796;-71
2021/07/01 12:03:48;;;;;;;16.63;10.30;;;16.60;67.60;;;;;;5051056;28;20388;-71
2021/07/01 12:06:41;;;;;;;18.63;10.40;;;16.70;68.10;;;;;;5051413;28;20382;-70
2021/07/01 12:09:11;;;;;;;19.02;10.07;;;16.80;68.70;;;;;;5050926;28;20381;-71
2021/07/01 12:12:01;;;;;;;15.57;8.70;;;16.90;63.50;;;;;;5051270;28;20889;-71
2021/07/01 12:14:35;;;;;;;15.55;9.20;;;16.90;62.50;;;;;;5050592;28;20775;-71
2021/07/01 12:17:00;;;;;;;16.02;9.02;;;16.90;63.80;;;;;;5050760;28;20449;-71
2021/07/01 12:19:46;;;;;;;13.85;8.25;;;17.10;59.90;;;;;;5049476;28;20961;-71
2021/07/01 12:22:49;;;;;;;11.23;8.30;;;17.00;59.80;;;;;;5043402;28;20429;-71
2021/07/01 12:25:19;;;;;;;16.92;8.60;;;16.90;61.50;;;;;;5050716;28;20448;-72
2021/07/01 12:27:45;;;;;;;14.95;8.20;;;16.80;62.60;;;;;;5050332;28;20469;-72
2021/07/01 12:30:11;;;;;;;13.43;8.73;;;16.80;63.40;;;;;;5050440;28;20905;-71
2021/07/01 12:32:37;;;;;;;16.33;8.60;;;16.90;61.30;;;;;;5052010;28;20910;-71